createdAt,value
2022-08-28T00:07:47.662Z,101773.50
2022-08-28T00:17:49.309Z,101775.53
2022-08-28T00:27:50.578Z,101770.44
2022-08-28T00:37:52.063Z,101765.91
2022-08-28T00:47:53.861Z,101784.66
2022-08-28T00:57:55.158Z,101782.91
2022-08-28T01:07:56.428Z,101792.75
2022-08-28T01:17:57.680Z,101796.56
2022-08-28T01:27:58.960Z,101794.53
2022-08-28T01:38:00.287Z,101803.66
2022-08-28T01:48:01.535Z,101806.44
2022-08-28T01:58:02.824Z,101806.72
2022-08-28T02:08:04.105Z,101810.25
2022-08-28T02:18:05.436Z,101812.28
2022-08-28T02:28:06.755Z,101815.84
2022-08-28T02:38:08.208Z,101814.31
2022-08-28T02:48:15.938Z,101822.19
2022-08-28T02:58:18.716Z,101828.50
2022-08-28T03:08:20.002Z,101819.91
2022-08-28T03:18:28.449Z,101829.78
2022-08-28T03:28:29.704Z,101839.16
2022-08-28T03:38:30.985Z,101836.38
2022-08-28T03:48:32.299Z,101854.09
2022-08-28T03:58:34.026Z,101840.19
2022-08-28T04:08:35.329Z,101851.56
2022-08-28T04:18:36.589Z,101847.53
2022-08-28T04:28:37.837Z,101852.84
2022-08-28T04:38:43.092Z,101860.97
2022-08-28T04:48:45.322Z,101874.16
2022-08-28T04:58:46.625Z,101863.72
2022-08-28T05:08:47.920Z,101874.41
2022-08-28T05:18:49.184Z,101887.56
2022-08-28T05:28:50.424Z,101894.91
2022-08-28T05:38:54.530Z,101906.84
2022-08-28T05:48:55.908Z,101908.13
2022-08-28T05:58:57.195Z,101907.13
2022-08-28T06:08:59.240Z,101920.53
2022-08-28T06:19:00.916Z,101928.13
2022-08-28T06:29:02.407Z,101928.13
2022-08-28T06:39:03.654Z,101936.75
2022-08-28T06:49:04.948Z,101954.53
2022-08-28T06:59:06.225Z,101945.66
2022-08-28T07:09:07.578Z,101942.63
2022-08-28T07:19:09.989Z,101949.97
2022-08-28T07:29:12.099Z,101953.03
2022-08-28T07:39:13.489Z,101966.69
2022-08-28T07:49:14.896Z,101964.94
2022-08-28T07:59:16.901Z,101970.81
2022-08-28T08:09:18.551Z,101974.34
2022-08-28T08:19:19.900Z,101975.88
2022-08-28T08:29:21.298Z,101984.47
2022-08-28T08:39:22.770Z,101992.84
2022-08-28T08:49:24.182Z,101988.28
2022-08-28T08:59:25.572Z,101982.97
2022-08-28T09:09:26.850Z,101979.41
2022-08-28T09:19:28.204Z,101983.50
2022-08-28T09:29:29.518Z,101985.75
2022-08-28T09:39:30.816Z,101989.56
2022-08-28T09:49:34.016Z,101990.59
2022-08-28T09:59:35.430Z,101983.72
2022-08-28T10:09:36.827Z,101986.03
2022-08-28T10:19:38.103Z,101983.25
2022-08-28T10:29:39.481Z,101976.38
2022-08-28T10:39:40.863Z,101984.75
2022-08-28T10:49:42.216Z,101970.28
2022-08-28T10:59:43.600Z,101981.19
2022-08-28T11:09:45.017Z,101986.28
2022-08-28T11:19:51.681Z,101967.50
2022-08-28T11:29:53.731Z,101976.63
2022-08-28T11:39:55.015Z,101980.69
2022-08-28T11:49:56.436Z,101977.41
2022-08-28T11:59:57.770Z,101985.28
2022-08-28T12:10:04.288Z,101979.69
2022-08-28T12:20:06.483Z,101961.91
2022-08-28T12:30:07.899Z,101968.28
2022-08-28T12:40:09.263Z,101963.44
2022-08-28T12:50:10.654Z,101952.28
2022-08-28T13:00:11.926Z,101955.31
2022-08-28T13:10:13.304Z,101948.97
2022-08-28T13:20:14.597Z,101949.75
2022-08-28T13:30:15.976Z,101948.47
2022-08-28T13:40:45.872Z,101923.59
2022-08-28T13:50:38.637Z,101931.47
2022-08-28T14:00:40.081Z,101932.22
2022-08-28T14:10:41.500Z,101922.56
2022-08-28T14:20:42.799Z,101922.06
2022-08-28T14:30:44.106Z,101922.84
2022-08-28T14:40:45.567Z,101928.16
2022-08-28T14:50:46.943Z,101897.44
2022-08-28T15:00:48.447Z,101896.44
2022-08-28T15:10:50.128Z,101897.97
2022-08-28T15:20:51.395Z,101894.91
2022-08-28T15:30:52.842Z,101901.00
2022-08-28T15:40:54.281Z,101886.28
2022-08-28T15:50:55.657Z,101879.94
2022-08-28T16:00:56.988Z,101876.13
2022-08-28T16:10:59.001Z,101880.97
2022-08-28T16:21:04.584Z,101883.25
2022-08-28T16:31:07.821Z,101900.00
2022-08-28T16:41:20.713Z,101903.00
2022-08-28T16:51:22.769Z,101897.44
2022-08-28T17:01:24.653Z,101894.63
2022-08-28T17:11:26.088Z,101900.00
2022-08-28T17:21:28.364Z,101887.78
2022-08-28T17:31:29.701Z,101893.38
2022-08-28T17:41:31.006Z,101894.63
2022-08-28T17:51:41.831Z,101900.00
2022-08-28T18:01:44.535Z,101900.22
2022-08-28T18:11:45.991Z,101903.78
2022-08-28T18:21:47.461Z,101908.38
2022-08-28T18:31:48.828Z,101907.34
2022-08-28T18:41:50.156Z,101918.50
2022-08-28T18:51:51.445Z,101928.94
2022-08-28T19:01:52.954Z,101942.63
2022-08-28T19:11:54.404Z,101953.78
2022-08-28T19:21:55.777Z,101958.59
2022-08-28T19:31:57.220Z,101972.06
2022-08-28T19:41:58.590Z,101980.44
2022-08-28T19:52:00.061Z,101984.50
2022-08-28T20:02:01.493Z,101991.59
2022-08-28T20:12:03.882Z,101996.16
2022-08-28T20:22:05.236Z,102007.34
2022-08-28T20:32:06.610Z,102011.63
2022-08-28T20:42:07.886Z,102014.69
2022-08-28T20:52:09.184Z,102023.81
2022-08-28T21:02:10.473Z,102041.56
2022-08-28T21:12:11.853Z,102046.38
2022-08-28T21:22:13.268Z,102046.59
2022-08-28T21:32:16.810Z,102040.78
2022-08-28T21:42:19.396Z,102051.16
2022-08-28T21:52:20.678Z,102063.84
2022-08-28T22:02:22.040Z,102051.41
2022-08-28T22:12:23.404Z,102056.72
2022-08-28T22:22:24.675Z,102052.69
2022-08-28T22:32:25.924Z,102053.47
2022-08-28T22:42:27.206Z,102049.63
2022-08-28T22:52:28.460Z,102059.53
2022-08-28T23:02:29.712Z,102059.28
2022-08-28T23:12:31.015Z,102056.47
2022-08-28T23:22:32.287Z,102048.59
2022-08-28T23:32:33.765Z,102056.19
2022-08-28T23:42:35.530Z,102050.63
2022-08-28T23:52:36.918Z,102056.19
